Time;durP1;ratioP1;P1;durP2;ratioP2;P2;SDS_P1;SDS_P2;PMS_P1;PMS_P2;Temp;Humidity;BMP_temperature;BMP_pressure;BME280_temperature;BME280_humidity;BME280_pressure;Samples;Min_cycle;Max_cycle;Signal;HPM_P1;HPM_P2
2021/08/20 00:00:36;;;;;;;4.43;2.15;;;17.30;88.60;;;;;;6239325;23;20050;-74
2021/08/20 00:03:04;;;;;;;3.72;1.80;;;17.20;88.70;;;;;;6247337;23;20323;-75
2021/08/20 00:05:31;;;;;;;3.97;2.00;;;17.20;88.80;;;;;;6245121;23;20035;-75
2021/08/20 00:07:58;;;;;;;3.33;1.50;;;17.20;88.90;;;;;;6248796;23;20020;-75
2021/08/20 00:10:26;;;;;;;5.13;2.45;;;17.20;88.70;;;;;;6219981;23;20028;-73
2021/08/20 00:12:57;;;;;;;4.32;2.20;;;17.20;88.70;;;;;;6222837;23;20024;-75
2021/08/20 00:15:25;;;;;;;4.60;2.17;;;17.20;88.60;;;;;;6246276;23;20028;-74
2021/08/20 00:17:52;;;;;;;3.90;2.05;;;17.10;88.60;;;;;;6247871;23;20377;-76
2021/08/20 00:20:20;;;;;;;6.55;2.47;;;17.10;88.80;;;;;;6221513;23;20035;-76
2021/08/20 00:22:47;;;;;;;7.15;2.58;;;17.10;89.10;;;;;;6220619;23;20040;-76
2021/08/20 00:25:14;;;;;;;4.82;2.35;;;17.10;89.20;;;;;;6248963;23;20028;-74
2021/08/20 00:27:42;;;;;;;5.00;1.80;;;17.10;89.20;;;;;;6221339;23;20020;-75
2021/08/20 00:30:12;;;;;;;6.57;2.22;;;17.10;89.20;;;;;;6252565;23;20020;-74
2021/08/20 00:32:39;;;;;;;3.97;1.60;;;17.10;89.10;;;;;;6249791;23;20019;-75
2021/08/20 00:35:08;;;;;;;6.85;2.20;;;17.10;89.10;;;;;;6249749;23;20028;-75
2021/08/20 00:37:37;;;;;;;6.22;1.95;;;17.00;89.10;;;;;;6247662;23;20236;-73
2021/08/20 00:40:08;;;;;;;4.20;1.60;;;17.00;89.10;;;;;;6222054;23;20027;-75
2021/08/20 00:42:36;;;;;;;6.75;2.05;;;17.00;89.00;;;;;;6248462;23;20122;-74
2021/08/20 00:45:04;;;;;;;5.85;2.15;;;16.80;89.20;;;;;;6249364;23;20031;-75
2021/08/20 00:47:33;;;;;;;5.05;2.05;;;16.70;89.50;;;;;;6222497;23;20047;-75
2021/08/20 00:50:03;;;;;;;6.05;1.75;;;16.70;89.60;;;;;;6222190;23;20042;-75
2021/08/20 00:52:31;;;;;;;6.13;2.15;;;16.70;89.70;;;;;;6248815;23;20298;-75
2021/08/20 00:54:58;;;;;;;4.57;2.13;;;16.70;89.70;;;;;;6249098;23;20028;-74
2021/08/20 00:57:25;;;;;;;7.60;2.20;;;16.60;90.00;;;;;;6249183;23;20032;-74
2021/08/20 00:59:53;;;;;;;8.25;1.95;;;16.60;90.00;;;;;;6246213;23;20201;-76
2021/08/20 01:02:22;;;;;;;4.18;2.00;;;16.50;90.30;;;;;;6243523;23;20032;-75
2021/08/20 01:04:51;;;;;;;4.70;1.77;;;16.40;90.40;;;;;;6249181;23;20024;-73
2021/08/20 01:07:21;;;;;;;5.05;2.28;;;16.30;90.40;;;;;;6219402;23;20070;-75
2021/08/20 01:09:49;;;;;;;5.45;1.90;;;16.30;90.40;;;;;;6249784;23;20099;-73
2021/08/20 01:12:18;;;;;;;3.60;1.90;;;16.30;90.30;;;;;;6222063;23;20086;-74
2021/08/20 01:14:57;;;;;;;6.88;1.80;;;16.20;90.50;;;;;;5286969;23;10000991;-75
2021/08/20 01:17:24;;;;;;;4.53;1.90;;;16.20;90.70;;;;;;1716926;23;10001853;-76
2021/08/20 01:19:57;;;;;;;4.53;2.03;;;16.30;90.70;;;;;;6221923;23;20031;-75
2021/08/20 01:22:24;;;;;;;5.05;2.47;;;16.30;90.70;;;;;;6221219;23;20035;-76
2021/08/20 01:24:59;;;;;;;4.28;1.77;;;16.30;90.50;;;;;;6249059;23;20031;-76
2021/08/20 01:27:27;;;;;;;4.82;1.70;;;16.40;90.50;;;;;;6220428;23;20044;-74
2021/08/20 01:29:54;;;;;;;3.58;1.40;;;16.40;90.40;;;;;;6247438;23;20079;-76
2021/08/20 01:32:27;;;;;;;4.22;2.13;;;16.40;90.30;;;;;;6244221;23;20103;-76
2021/08/20 01:34:54;;;;;;;3.58;1.75;;;16.40;90.40;;;;;;6220167;23;20027;-76
2021/08/20 01:37:22;;;;;;;7.60;1.70;;;16.40;90.40;;;;;;6221481;23;20028;-75
2021/08/20 01:39:49;;;;;;;8.05;2.15;;;16.40;90.50;;;;;;6250021;23;20065;-75
2021/08/20 01:42:19;;;;;;;7.50;2.05;;;16.40;90.40;;;;;;6219657;23;20326;-76
2021/08/20 01:44:46;;;;;;;3.95;1.50;;;16.40;90.40;;;;;;6248193;23;20047;-76
2021/08/20 01:47:13;;;;;;;7.20;2.65;;;16.40;90.40;;;;;;6219506;23;20028;-74
2021/08/20 01:49:41;;;;;;;5.30;1.95;;;16.50;90.30;;;;;;6221152;23;20024;-74
2021/08/20 01:52:10;;;;;;;3.70;1.80;;;16.50;90.10;;;;;;6221324;23;20068;-74
2021/08/20 01:54:39;;;;;;;3.88;1.73;;;16.60;90.00;;;;;;6219181;23;20028;-74
2021/08/20 01:57:07;;;;;;;5.03;1.92;;;16.50;89.80;;;;;;6220075;23;20032;-76
2021/08/20 01:59:37;;;;;;;3.53;1.70;;;16.50;90.00;;;;;;6218608;23;20027;-75
2021/08/20 02:02:05;;;;;;;4.18;1.73;;;16.50;90.00;;;;;;6213055;23;20016;-75
2021/08/20 02:04:32;;;;;;;4.15;1.83;;;16.50;90.10;;;;;;6245700;23;20028;-75
2021/08/20 02:07:00;;;;;;;7.05;1.58;;;16.50;90.10;;;;;;6247770;23;20023;-75
2021/08/20 02:09:28;;;;;;;4.45;1.73;;;16.40;90.30;;;;;;6219475;23;20200;-76
2021/08/20 02:11:56;;;;;;;4.30;2.25;;;16.40;90.50;;;;;;6220730;23;20083;-75
2021/08/20 02:14:25;;;;;;;3.70;1.85;;;16.20;90.80;;;;;;6221075;23;20066;-75
2021/08/20 02:16:57;;;;;;;4.60;1.98;;;16.20;90.90;;;;;;6220751;23;20016;-75
2021/08/20 02:19:25;;;;;;;5.13;2.03;;;16.10;91.10;;;;;;6220060;23;20035;-75
2021/08/20 02:21:52;;;;;;;4.78;2.08;;;16.10;91.20;;;;;;6220636;23;20028;-77
2021/08/20 02:24:25;;;;;;;4.85;1.75;;;16.20;91.20;;;;;;6221660;23;20028;-77
2021/08/20 02:26:52;;;;;;;5.35;1.60;;;16.20;90.70;;;;;;6221980;23;20028;-74
2021/08/20 02:29:20;;;;;;;4.90;1.60;;;16.30;90.60;;;;;;6219450;23;20293;-75
2021/08/20 02:31:48;;;;;;;6.47;1.50;;;16.30;90.40;;;;;;6219706;23;20075;-76
2021/08/20 02:34:16;;;;;;;6.00;1.77;;;16.40;90.30;;;;;;6220854;23;20020;-75
2021/08/20 02:36:44;;;;;;;3.40;1.70;;;16.40;90.10;;;;;;6221841;23;20066;-74
2021/08/20 02:39:11;;;;;;;3.10;1.48;;;16.50;90.10;;;;;;6249165;23;20032;-75
2021/08/20 02:41:39;;;;;;;4.88;1.50;;;16.40;90.00;;;;;;6222293;23;20327;-75
2021/08/20 02:44:06;;;;;;;4.70;2.28;;;16.50;90.00;;;;;;6221398;23;20362;-77
2021/08/20 02:46:34;;;;;;;4.00;1.77;;;16.50;90.00;;;;;;6220195;23;20031;-76
2021/08/20 02:49:03;;;;;;;3.97;1.83;;;16.50;90.10;;;;;;6220922;23;20032;-75
2021/08/20 02:51:32;;;;;;;3.63;1.75;;;16.50;90.20;;;;;;6220157;23;20134;-76
2021/08/20 02:54:00;;;;;;;;;;;16.50;90.10;;;;;;6221601;23;20016;-74
2021/08/20 02:56:31;;;;;;;4.43;1.95;;;16.50;90.30;;;;;;6220223;23;19920;-74
2021/08/20 02:59:02;;;;;;;5.95;2.17;;;16.60;90.20;;;;;;6221348;23;20020;-76
2021/08/20 03:01:30;;;;;;;6.68;1.98;;;16.50;90.20;;;;;;6213556;23;20032;-76
2021/08/20 03:04:03;;;;;;;4.22;2.03;;;16.60;90.00;;;;;;6245322;23;20023;-76
2021/08/20 03:06:34;;;;;;;4.60;2.17;;;16.60;90.00;;;;;;6246887;23;20240;-76
2021/08/20 03:09:03;;;;;;;3.45;1.70;;;16.50;90.20;;;;;;6215825;23;20069;-75
2021/08/20 03:11:33;;;;;;;7.88;2.70;;;16.50;90.30;;;;;;6242560;23;20050;-73
2021/08/20 03:14:00;;;;;;;4.25;2.17;;;16.40;90.40;;;;;;6219092;23;20053;-76
2021/08/20 03:16:38;;;;;;;3.92;1.63;;;16.20;90.70;;;;;;6243432;23;20028;-77
2021/08/20 03:19:07;;;;;;;5.55;2.15;;;16.20;90.90;;;;;;6217440;23;20023;-75
2021/08/20 03:21:35;;;;;;;6.00;1.67;;;16.10;91.10;;;;;;6218656;23;20058;-76
2021/08/20 03:24:03;;;;;;;7.47;2.22;;;16.00;91.20;;;;;;6218970;23;20035;-74
2021/08/20 03:26:34;;;;;;;5.55;1.95;;;16.00;91.30;;;;;;6218152;23;20211;-74
2021/08/20 03:29:03;;;;;;;4.90;2.00;;;16.00;91.20;;;;;;6217082;23;20020;-74
2021/08/20 03:31:31;;;;;;;6.40;2.03;;;16.00;91.40;;;;;;6218325;23;20282;-76
2021/08/20 03:34:00;;;;;;;5.13;1.80;;;16.00;91.30;;;;;;6219005;23;20024;-75
2021/08/20 03:36:29;;;;;;;9.45;2.50;;;16.10;91.40;;;;;;6218785;23;20037;-76
2021/08/20 03:39:06;;;;;;;5.85;1.92;;;16.10;91.30;;;;;;6220454;23;20016;-75
2021/08/20 03:41:36;;;;;;;7.93;2.78;;;16.20;91.20;;;;;;6219359;23;20016;-75
2021/08/20 03:44:09;;;;;;;5.70;1.83;;;16.10;91.10;;;;;;6220314;23;20032;-76
2021/08/20 03:46:45;;;;;;;4.15;1.88;;;16.20;91.20;;;;;;6218944;23;20287;-75
2021/08/20 03:49:13;;;;;;;4.10;2.22;;;16.20;91.10;;;;;;6221068;23;20027;-77
2021/08/20 03:51:41;;;;;;;3.95;2.00;;;16.10;91.00;;;;;;6247010;23;20047;-75
2021/08/20 03:54:21;;;;;;;3.80;2.13;;;16.20;90.90;;;;;;6221497;23;20028;-76
2021/08/20 03:56:49;;;;;;;4.47;2.30;;;16.10;91.00;;;;;;6223497;23;20102;-75
2021/08/20 03:59:24;;;;;;;5.80;1.98;;;16.00;91.10;;;;;;6222802;23;20183;-74
2021/08/20 04:01:58;;;;;;;6.22;2.30;;;15.90;91.30;;;;;;6213559;23;20322;-74
2021/08/20 04:04:26;;;;;;;5.72;2.55;;;15.80;91.30;;;;;;6222001;23;20027;-77
2021/08/20 04:07:20;;;;;;;6.40;2.80;;;15.80;91.50;;;;;;6242205;23;20040;-76
2021/08/20 04:10:12;;;;;;;7.50;2.80;;;15.70;91.70;;;;;;6221327;23;20087;-75
2021/08/20 04:13:01;;;;;;;4.70;2.13;;;15.70;91.60;;;;;;6246855;23;20028;-75
2021/08/20 04:15:36;;;;;;;6.72;2.47;;;15.60;91.50;;;;;;6245760;23;20071;-76
2021/08/20 04:18:04;;;;;;;5.10;2.70;;;15.60;91.60;;;;;;6247254;23;20016;-76
2021/08/20 04:20:34;;;;;;;4.57;2.00;;;15.50;91.70;;;;;;6220298;23;20028;-76
2021/08/20 04:23:05;;;;;;;6.13;2.40;;;15.50;91.70;;;;;;6221861;23;20327;-75
2021/08/20 04:25:34;;;;;;;;;;;15.50;91.80;;;;;;6222358;23;20024;-75
2021/08/20 04:28:24;;;;;;;5.55;2.28;;;15.50;91.80;;;;;;6177871;23;19919;-75
2021/08/20 04:31:14;;;;;;;5.55;2.05;;;15.50;92.00;;;;;;6248556;23;20346;-73
2021/08/20 04:34:00;;;;;;;5.53;2.35;;;15.30;92.20;;;;;;6249213;23;20135;-76
2021/08/20 04:36:53;;;;;;;5.25;2.03;;;15.30;92.30;;;;;;6233238;23;20584;-75
2021/08/20 04:39:33;;;;;;;4.10;1.80;;;15.30;92.30;;;;;;6222207;23;20313;-76
2021/08/20 04:42:31;;;;;;;6.20;2.53;;;15.20;92.40;;;;;;6223112;23;20041;-77
2021/08/20 04:45:18;;;;;;;4.10;2.00;;;15.20;92.50;;;;;;6249692;23;20039;-77
2021/08/20 04:47:58;;;;;;;5.72;2.60;;;15.10;92.50;;;;;;6222417;23;20367;-75
2021/08/20 04:50:50;;;;;;;5.32;2.08;;;15.10;92.50;;;;;;6219958;23;20315;-75
2021/08/20 04:53:28;;;;;;;4.88;2.05;;;15.10;92.40;;;;;;6220121;23;20283;-77
2021/08/20 04:56:08;;;;;;;5.32;2.75;;;15.20;92.40;;;;;;6246580;23;20087;-74
2021/08/20 04:58:36;;;;;;;10.80;3.13;;;15.10;92.20;;;;;;6219286;23;20023;-74
2021/08/20 05:01:04;;;;;;;5.47;2.78;;;15.20;92.10;;;;;;6238841;23;20075;-74
2021/08/20 05:03:32;;;;;;;6.32;2.83;;;15.20;92.20;;;;;;6218622;23;20027;-74
2021/08/20 05:05:59;;;;;;;4.97;2.28;;;15.10;92.20;;;;;;6246859;23;20047;-73
2021/08/20 05:08:27;;;;;;;4.88;1.90;;;15.20;92.30;;;;;;6244528;23;20031;-76
2021/08/20 05:10:54;;;;;;;6.55;2.17;;;15.20;92.40;;;;;;6247515;23;20068;-74
2021/08/20 05:13:22;;;;;;;4.68;2.08;;;15.30;92.40;;;;;;6219163;23;20056;-76
2021/08/20 05:15:50;;;;;;;4.50;2.00;;;15.30;92.20;;;;;;6246111;23;20068;-74
2021/08/20 05:18:17;;;;;;;5.90;2.35;;;15.40;92.30;;;;;;6247020;23;20063;-74
2021/08/20 05:20:44;;;;;;;4.85;2.28;;;15.50;92.30;;;;;;6246879;23;20027;-74
2021/08/20 05:23:11;;;;;;;5.10;2.42;;;15.70;92.10;;;;;;6245389;23;20039;-74
2021/08/20 05:25:39;;;;;;;6.03;2.92;;;15.80;91.90;;;;;;6247004;23;20020;-75
2021/08/20 05:28:09;;;;;;;6.15;3.00;;;16.10;91.60;;;;;;6246758;23;20024;-75
2021/08/20 05:30:36;;;;;;;9.88;3.28;;;16.20;91.20;;;;;;6246829;23;20016;-75
2021/08/20 05:33:05;;;;;;;8.70;2.97;;;16.30;90.80;;;;;;6247796;23;20092;-75
2021/08/20 05:35:34;;;;;;;11.60;3.22;;;16.30;90.50;;;;;;6248422;23;20197;-75
2021/08/20 05:38:03;;;;;;;8.47;3.23;;;16.40;90.30;;;;;;6247524;23;20058;-75
2021/08/20 05:40:30;;;;;;;5.85;2.75;;;16.50;90.10;;;;;;6249116;23;20054;-75
2021/08/20 05:42:57;;;;;;;5.70;3.00;;;16.60;89.90;;;;;;6250906;23;20028;-75
2021/08/20 05:45:24;;;;;;;8.40;3.00;;;16.60;89.70;;;;;;6247611;23;20353;-76
2021/08/20 05:47:51;;;;;;;5.85;2.75;;;16.70;89.70;;;;;;6221904;23;20024;-75
2021/08/20 05:50:20;;;;;;;5.22;2.90;;;16.80;89.00;;;;;;6247069;23;20080;-76
2021/08/20 05:52:47;;;;;;;4.50;2.75;;;16.80;89.00;;;;;;6248867;23;20046;-76
2021/08/20 05:55:14;;;;;;;5.88;3.10;;;16.90;88.80;;;;;;6248830;23;20027;-75
2021/08/20 05:57:41;;;;;;;6.47;3.15;;;16.90;89.10;;;;;;6247731;23;20254;-75
2021/08/20 06:00:10;;;;;;;6.40;2.92;;;17.00;89.00;;;;;;6240792;23;20043;-78
2021/08/20 06:02:50;;;;;;;7.85;3.00;;;17.00;88.70;;;;;;6221877;23;20035;-74
2021/08/20 06:05:22;;;;;;;7.22;2.80;;;17.00;89.10;;;;;;6221573;23;20048;-74
2021/08/20 06:07:50;;;;;;;6.60;2.88;;;17.10;88.40;;;;;;6221050;23;20027;-76
2021/08/20 06:10:18;;;;;;;7.97;3.03;;;17.20;88.20;;;;;;6247053;23;20020;-74
2021/08/20 06:12:45;;;;;;;7.43;2.80;;;17.20;88.00;;;;;;6248621;23;20024;-73
2021/08/20 06:15:14;;;;;;;6.18;3.20;;;17.20;88.00;;;;;;6247767;23;20079;-76
2021/08/20 06:17:42;;;;;;;10.57;3.25;;;17.10;88.20;;;;;;6248177;23;20067;-74
2021/08/20 06:20:11;;;;;;;5.90;2.90;;;17.20;88.20;;;;;;6219818;23;20032;-75
2021/08/20 06:22:39;;;;;;;6.95;3.47;;;17.10;88.70;;;;;;6248122;23;20323;-75
2021/08/20 06:25:07;;;;;;;8.32;3.63;;;17.10;88.90;;;;;;6249014;23;20020;-74
2021/08/20 06:27:34;;;;;;;6.60;3.47;;;17.00;89.00;;;;;;6245359;23;20048;-76
2021/08/20 06:30:02;;;;;;;5.75;2.72;;;16.90;89.10;;;;;;6246393;23;20358;-76
2021/08/20 06:32:34;;;;;;;6.53;2.92;;;16.80;89.40;;;;;;6245406;23;20024;-76
2021/08/20 06:35:01;;;;;;;7.13;2.92;;;16.90;89.60;;;;;;6246179;23;20024;-75
2021/08/20 06:37:28;;;;;;;7.72;3.08;;;16.90;89.50;;;;;;6246373;23;20558;-75
2021/08/20 06:39:57;;;;;;;8.73;3.30;;;17.00;89.50;;;;;;6249673;23;20331;-75
2021/08/20 06:42:24;;;;;;;7.22;2.78;;;17.20;89.10;;;;;;6249760;23;20020;-75
2021/08/20 06:44:52;;;;;;;6.47;2.90;;;17.30;88.60;;;;;;6250870;23;20035;-77
2021/08/20 06:47:19;;;;;;;6.57;3.25;;;17.30;87.70;;;;;;6247454;22;20020;-76
2021/08/20 06:49:47;;;;;;;7.45;3.00;;;17.40;88.20;;;;;;6248817;23;20066;-73
2021/08/20 06:52:14;;;;;;;7.30;3.83;;;17.60;87.30;;;;;;6249713;23;20028;-74
2021/08/20 06:54:41;;;;;;;9.00;3.42;;;17.70;87.20;;;;;;6249997;23;20031;-76
2021/08/20 06:57:12;;;;;;;6.40;3.00;;;17.70;86.80;;;;;;6220873;23;20083;-76
2021/08/20 06:59:39;;;;;;;8.40;3.88;;;17.60;87.10;;;;;;6247610;23;20028;-75
2021/08/20 07:02:06;;;;;;;6.78;3.20;;;17.70;86.90;;;;;;6244070;23;20032;-75
2021/08/20 07:04:34;;;;;;;7.93;2.85;;;17.70;86.50;;;;;;6247778;23;20035;-76
2021/08/20 07:07:02;;;;;;;7.63;3.35;;;17.70;86.70;;;;;;6222137;23;20024;-75
2021/08/20 07:09:30;;;;;;;8.88;3.40;;;17.70;86.30;;;;;;6250059;23;20083;-73
2021/08/20 07:11:57;;;;;;;7.72;2.83;;;17.90;86.20;;;;;;6248460;23;20080;-74
2021/08/20 07:14:26;;;;;;;6.97;3.17;;;18.10;85.20;;;;;;6250853;23;20183;-75
2021/08/20 07:16:53;;;;;;;8.60;3.60;;;18.20;83.80;;;;;;6249877;23;20032;-76
2021/08/20 07:19:20;;;;;;;7.13;3.28;;;18.40;82.60;;;;;;6248330;23;20040;-77
2021/08/20 07:21:47;;;;;;;5.25;2.88;;;18.80;81.60;;;;;;6251287;23;20082;-75
2021/08/20 07:24:15;;;;;;;7.88;3.55;;;19.10;78.60;;;;;;6250738;23;20028;-74
2021/08/20 07:26:42;;;;;;;7.80;3.70;;;19.10;78.00;;;;;;6250005;23;20024;-74
2021/08/20 07:29:09;;;;;;;6.15;2.88;;;19.30;76.60;;;;;;6248055;23;20585;-76
2021/08/20 07:31:38;;;;;;;6.18;2.47;;;19.30;78.00;;;;;;6249304;23;20083;-75
2021/08/20 07:34:05;;;;;;;6.43;2.60;;;19.60;77.50;;;;;;6249081;23;20016;-77
2021/08/20 07:36:33;;;;;;;8.05;2.75;;;19.70;77.50;;;;;;6223514;23;20054;-77
2021/08/20 07:39:00;;;;;;;5.70;3.10;;;19.80;75.70;;;;;;6249981;23;20046;-74
2021/08/20 07:41:29;;;;;;;5.28;2.30;;;19.60;73.20;;;;;;6250369;23;20020;-74
2021/08/20 07:43:56;;;;;;;5.30;2.78;;;19.60;76.30;;;;;;6252580;23;20043;-77
2021/08/20 07:46:23;;;;;;;4.30;2.38;;;19.70;73.90;;;;;;6251464;23;20047;-76
2021/08/20 07:48:52;;;;;;;6.45;2.47;;;19.60;73.50;;;;;;6252691;23;20042;-74
2021/08/20 07:51:19;;;;;;;5.57;2.20;;;19.50;73.70;;;;;;6251884;23;20071;-75
2021/08/20 07:53:46;;;;;;;5.53;2.35;;;19.30;74.00;;;;;;6221724;23;20051;-74
2021/08/20 07:56:13;;;;;;;4.70;2.35;;;19.60;74.60;;;;;;6225779;23;20027;-74
2021/08/20 07:58:40;;;;;;;5.15;2.33;;;19.60;72.30;;;;;;6251250;23;20023;-73
2021/08/20 08:01:07;;;;;;;5.72;2.38;;;19.90;72.30;;;;;;6247796;23;20311;-77
2021/08/20 08:03:34;;;;;;;4.35;2.30;;;20.20;71.10;;;;;;6225075;23;20032;-75
2021/08/20 08:06:03;;;;;;;5.00;2.45;;;20.10;69.40;;;;;;6251450;23;20016;-76
2021/08/20 08:08:30;;;;;;;4.18;1.70;;;20.10;69.20;;;;;;6250880;23;20031;-77
2021/08/20 08:10:58;;;;;;;5.20;2.30;;;20.50;69.50;;;;;;6250029;23;20027;-75
2021/08/20 08:13:25;;;;;;;4.57;2.08;;;20.50;67.60;;;;;;6249435;23;20028;-76
2021/08/20 08:15:52;;;;;;;3.70;2.13;;;20.60;68.00;;;;;;6248283;23;20012;-73
2021/08/20 08:18:19;;;;;;;5.88;2.03;;;20.60;68.30;;;;;;6249576;23;20240;-74
2021/08/20 08:20:47;;;;;;;5.38;2.05;;;20.60;68.60;;;;;;6223699;23;20224;-73
2021/08/20 08:23:16;;;;;;;2.65;1.52;;;20.50;67.30;;;;;;6249290;23;20050;-74
2021/08/20 08:25:43;;;;;;;5.15;2.00;;;20.60;68.80;;;;;;6249185;23;20077;-73
2021/08/20 08:28:10;;;;;;;4.72;1.98;;;20.80;68.20;;;;;;6249097;23;20346;-74
2021/08/20 08:30:41;;;;;;;2.80;1.50;;;20.80;68.00;;;;;;6220219;23;20051;-75
2021/08/20 08:33:10;;;;;;;4.10;1.85;;;21.10;69.00;;;;;;6249719;23;20365;-75
2021/08/20 08:35:37;;;;;;;4.85;1.83;;;21.30;67.50;;;;;;6220708;23;20050;-75
2021/08/20 08:38:06;;;;;;;4.93;2.15;;;21.60;64.10;;;;;;6247730;23;20043;-75
2021/08/20 08:40:37;;;;;;;3.78;1.33;;;21.80;64.50;;;;;;6246054;23;20032;-74
2021/08/20 08:43:04;;;;;;;4.50;2.10;;;22.30;64.80;;;;;;6219695;23;20024;-75
2021/08/20 08:45:32;;;;;;;3.75;1.70;;;21.90;62.10;;;;;;6249758;23;20039;-76
2021/08/20 08:48:02;;;;;;;5.00;2.22;;;21.70;63.70;;;;;;6247026;23;20024;-75
2021/08/20 08:50:33;;;;;;;3.50;1.45;;;21.90;62.30;;;;;;6248880;23;20322;-76
2021/08/20 08:53:01;;;;;;;4.57;1.70;;;22.00;63.00;;;;;;6251753;23;20016;-75
2021/08/20 08:55:28;;;;;;;3.33;1.67;;;21.40;63.50;;;;;;6250901;23;20127;-76
2021/08/20 08:57:57;;;;;;;6.75;1.77;;;21.40;63.70;;;;;;6222884;23;20024;-75
2021/08/20 09:00:31;;;;;;;4.43;1.98;;;21.10;63.70;;;;;;6245577;23;20039;-75
2021/08/20 09:02:59;;;;;;;3.50;1.40;;;21.20;65.50;;;;;;6222834;23;20058;-75
2021/08/20 09:05:26;;;;;;;3.30;1.77;;;21.40;65.30;;;;;;6250798;23;20028;-76
2021/08/20 09:07:54;;;;;;;3.20;1.65;;;21.80;62.50;;;;;;6223803;23;20035;-76
2021/08/20 09:10:23;;;;;;;4.30;2.03;;;21.90;62.40;;;;;;6248696;23;20285;-76
2021/08/20 09:12:57;;;;;;;6.45;1.90;;;21.60;63.10;;;;;;6246929;23;20043;-76
2021/08/20 09:15:26;;;;;;;4.47;1.92;;;21.60;62.50;;;;;;6249799;23;20031;-74
2021/08/20 09:17:55;;;;;;;3.08;1.48;;;21.80;62.90;;;;;;6247510;23;20023;-75
2021/08/20 09:20:24;;;;;;;3.75;1.98;;;22.10;63.30;;;;;;6248705;23;20028;-75
2021/08/20 09:22:54;;;;;;;4.93;1.95;;;22.10;63.30;;;;;;6244669;23;20016;-75
2021/08/20 09:25:35;;;;;;;2.67;1.48;;;22.40;61.60;;;;;;6245851;23;20048;-75
2021/08/20 09:28:23;;;;;;;2.90;1.33;;;22.20;61.60;;;;;;6248516;23;20051;-74
2021/08/20 09:31:07;;;;;;;2.88;1.38;;;22.40;62.00;;;;;;6246922;23;20040;-76
2021/08/20 09:33:37;;;;;;;3.60;1.50;;;22.60;60.10;;;;;;6222060;23;20031;-76
2021/08/20 09:36:06;;;;;;;3.78;1.38;;;22.00;60.70;;;;;;6221992;23;20015;-75
2021/08/20 09:38:36;;;;;;;3.72;1.70;;;21.90;61.60;;;;;;6248144;23;20024;-76
2021/08/20 09:41:06;;;;;;;2.95;1.40;;;21.90;62.20;;;;;;6248746;23;20027;-75
2021/08/20 09:43:36;;;;;;;4.93;1.73;;;22.30;61.60;;;;;;6245507;23;20254;-78
2021/08/20 09:46:09;;;;;;;3.08;1.40;;;22.50;60.40;;;;;;6249592;23;20192;-77
2021/08/20 09:48:42;;;;;;;3.97;1.33;;;22.20;61.30;;;;;;6249341;23;20074;-77
2021/08/20 09:51:09;;;;;;;4.57;1.80;;;22.10;61.20;;;;;;6221672;23;20027;-75
2021/08/20 09:53:37;;;;;;;4.25;2.13;;;22.30;60.20;;;;;;6248948;23;20016;-77
2021/08/20 09:56:06;;;;;;;3.13;1.48;;;22.40;59.70;;;;;;6222356;23;20031;-76
2021/08/20 09:58:35;;;;;;;4.05;2.03;;;22.60;59.90;;;;;;6248483;23;20095;-74
2021/08/20 10:01:03;;;;;;;3.35;1.73;;;23.60;57.40;;;;;;6243781;23;20069;-76
2021/08/20 10:03:34;;;;;;;3.60;1.52;;;23.20;56.90;;;;;;6248717;23;20307;-76
2021/08/20 10:06:02;;;;;;;5.53;1.48;;;23.30;56.30;;;;;;6221176;23;20020;-76
2021/08/20 10:08:31;;;;;;;3.63;1.38;;;22.90;57.10;;;;;;6221370;23;20035;-76
2021/08/20 10:10:59;;;;;;;3.40;1.50;;;23.00;58.90;;;;;;6248314;23;20039;-76
2021/08/20 10:13:28;;;;;;;4.90;1.48;;;23.20;57.20;;;;;;6219844;23;20060;-75
2021/08/20 10:16:01;;;;;;;2.65;1.38;;;23.50;57.40;;;;;;6220558;23;20074;-75
2021/08/20 10:18:34;;;;;;;4.03;1.33;;;24.30;53.70;;;;;;6246184;23;20043;-75
2021/08/20 10:21:02;;;;;;;7.30;1.30;;;25.60;52.20;;;;;;6248555;23;20358;-76
2021/08/20 10:23:32;;;;;;;2.28;1.20;;;26.80;50.20;;;;;;6219726;23;20024;-75
2021/08/20 10:25:59;;;;;;;1.73;1.02;;;27.70;47.30;;;;;;6247441;23;20016;-75
2021/08/20 10:28:27;;;;;;;2.65;1.45;;;27.50;45.80;;;;;;6245928;23;20350;-76
2021/08/20 10:30:56;;;;;;;4.68;1.55;;;26.70;44.80;;;;;;6247081;22;20020;-74
2021/08/20 10:33:34;;;;;;;3.70;2.20;;;25.90;48.50;;;;;;6222974;23;20028;-76
2021/08/20 10:36:06;;;;;;;3.53;1.67;;;27.10;46.70;;;;;;6250552;23;20083;-76
2021/08/20 10:38:41;;;;;;;6.03;1.33;;;27.90;44.40;;;;;;6221668;23;20107;-76
2021/08/20 10:41:18;;;;;;;2.25;1.30;;;27.10;45.70;;;;;;6247287;23;20023;-77
2021/08/20 10:43:51;;;;;;;5.65;1.17;;;25.00;50.10;;;;;;6248276;23;20039;-78
2021/08/20 10:47:07;;;;;;;3.30;1.27;;;25.30;51.70;;;;;;6247511;23;20206;-76
2021/08/20 10:49:44;;;;;;;3.25;1.65;;;26.70;46.60;;;;;;6219040;23;20099;-76
2021/08/20 10:52:32;;;;;;;4.38;1.42;;;27.40;45.70;;;;;;6248007;23;20082;-75
2021/08/20 10:55:30;;;;;;;2.78;1.10;;;29.00;41.90;;;;;;6244781;23;20020;-75
2021/08/20 10:58:06;;;;;;;6.60;1.50;;;31.60;38.60;;;;;;6222966;23;20242;-77
2021/08/20 11:00:35;;;;;;;2.72;1.20;;;31.80;36.10;;;;;;6244926;23;20024;-76
2021/08/20 11:03:04;;;;;;;3.35;1.50;;;31.10;37.00;;;;;;6246600;23;20028;-74
2021/08/20 11:05:49;;;;;;;6.13;1.30;;;29.50;39.10;;;;;;6250219;23;20039;-75
2021/08/20 11:08:44;;;;;;;2.65;1.30;;;28.70;41.60;;;;;;6252668;23;20020;-75
2021/08/20 11:11:45;;;;;;;3.40;1.08;;;30.30;39.70;;;;;;6252888;23;20028;-76
2021/08/20 11:14:36;;;;;;;2.88;1.35;;;32.20;36.80;;;;;;6249993;23;20258;-75
2021/08/20 11:17:05;;;;;;;2.67;1.00;;;32.30;35.30;;;;;;6225436;23;20024;-74
2021/08/20 11:19:57;;;;;;;3.90;1.45;;;30.60;37.90;;;;;;6252964;23;20012;-76
2021/08/20 11:22:27;;;;;;;3.78;1.20;;;29.90;39.10;;;;;;6248429;23;20294;-76
2021/08/20 11:25:24;;;;;;;2.95;1.40;;;28.60;41.90;;;;;;6252923;23;20036;-77
2021/08/20 11:28:05;;;;;;;2.25;1.30;;;27.60;43.20;;;;;;6250073;23;20091;-76
2021/08/20 11:30:36;;;;;;;2.17;1.10;;;30.20;38.50;;;;;;6251088;23;20028;-77
2021/08/20 11:33:20;;;;;;;1.92;1.23;;;30.90;38.00;;;;;;6252026;23;20211;-75
2021/08/20 11:35:50;;;;;;;3.90;1.13;;;28.70;41.60;;;;;;6223312;23;20028;-76
2021/08/20 11:38:31;;;;;;;3.58;1.30;;;28.10;43.30;;;;;;6251559;23;20031;-74
2021/08/20 11:41:05;;;;;;;4.75;1.13;;;29.60;41.50;;;;;;6251623;23;20024;-74
2021/08/20 11:43:33;;;;;;;6.72;1.30;;;31.20;38.80;;;;;;6249817;23;20048;-73
2021/08/20 11:46:03;;;;;;;3.58;1.27;;;32.40;34.70;;;;;;6248823;23;20024;-77
2021/08/20 11:48:31;;;;;;;2.97;1.40;;;32.90;33.20;;;;;;6249701;22;20024;-75
2021/08/20 11:51:00;;;;;;;2.33;1.23;;;33.90;33.20;;;;;;6252265;23;20024;-77
2021/08/20 11:53:30;;;;;;;2.67;1.20;;;34.30;31.30;;;;;;6249810;23;20051;-74
2021/08/20 11:56:11;;;;;;;3.40;1.30;;;35.70;30.80;;;;;;6251824;23;20318;-75
2021/08/20 11:58:39;;;;;;;3.30;1.40;;;35.90;28.50;;;;;;6250386;23;20042;-76
2021/08/20 12:01:06;;;;;;;3.65;1.40;;;35.80;29.00;;;;;;6245036;23;20039;-73
2021/08/20 12:03:35;;;;;;;2.90;1.30;;;35.50;30.10;;;;;;6251807;23;20016;-74
2021/08/20 12:06:09;;;;;;;2.58;1.25;;;35.70;29.30;;;;;;6251878;23;20024;-73
2021/08/20 12:08:44;;;;;;;4.82;1.58;;;33.80;30.90;;;;;;6225988;23;20028;-76
2021/08/20 12:11:12;;;;;;;;;;;34.00;30.90;;;;;;6227770;23;20050;-73
2021/08/20 12:13:47;;;;;;;5.65;2.55;;;34.80;31.60;;;;;;6224686;23;19926;-73
2021/08/20 12:16:32;;;;;;;3.55;1.65;;;35.80;29.40;;;;;;6225117;23;20035;-74
2021/08/20 12:19:00;;;;;;;2.83;1.48;;;36.70;28.70;;;;;;6223131;23;20079;-75
2021/08/20 12:21:33;;;;;;;5.50;3.03;;;37.20;28.00;;;;;;6224665;23;20024;-77
2021/08/20 12:24:03;;;;;;;2.90;1.20;;;37.30;26.50;;;;;;6253406;23;20031;-75
2021/08/20 12:26:33;;;;;;;3.30;1.77;;;37.30;26.30;;;;;;6252194;23;20027;-75
2021/08/20 12:29:14;;;;;;;2.70;1.55;;;38.30;26.30;;;;;;6251288;23;20020;-75
2021/08/20 12:31:53;;;;;;;2.67;1.67;;;38.70;24.60;;;;;;6225084;23;20032;-75
2021/08/20 12:34:28;;;;;;;3.05;1.75;;;38.50;24.60;;;;;;6225659;23;20048;-75
2021/08/20 12:36:56;;;;;;;3.20;1.30;;;38.10;25.40;;;;;;6253224;23;20024;-75
2021/08/20 12:39:34;;;;;;;4.45;1.80;;;37.70;25.40;;;;;;6221073;23;20032;-74
2021/08/20 12:42:23;;;;;;;4.15;2.00;;;38.30;25.00;;;;;;6246772;23;20082;-75
2021/08/20 12:45:06;;;;;;;4.80;1.95;;;38.40;24.80;;;;;;6247135;23;20035;-74
2021/08/20 12:47:33;;;;;;;3.97;2.08;;;38.00;24.80;;;;;;6219370;23;20086;-75
2021/08/20 12:50:02;;;;;;;3.95;2.08;;;38.10;24.60;;;;;;6224061;23;20024;-76
2021/08/20 12:52:30;;;;;;;4.97;2.08;;;36.80;26.70;;;;;;6218973;23;20029;-75
2021/08/20 12:54:59;;;;;;;4.00;1.73;;;38.00;25.90;;;;;;6218856;23;20185;-75
2021/08/20 12:57:26;;;;;;;9.43;2.55;;;38.00;25.30;;;;;;6220501;23;20036;-76
2021/08/20 13:00:02;;;;;;;4.32;2.17;;;35.40;27.70;;;;;;6219939;23;20031;-75
2021/08/20 13:02:30;;;;;;;3.45;1.65;;;33.70;30.00;;;;;;6220362;23;20020;-77
2021/08/20 13:04:58;;;;;;;7.72;2.35;;;32.20;31.90;;;;;;6244385;23;20039;-76
2021/08/20 13:07:25;;;;;;;3.50;1.70;;;32.00;33.00;;;;;;6219061;23;20024;-77